createdAt,value
2022-12-27T00:00:49.411Z,87.53
2022-12-27T00:01:49.430Z,87.53
2022-12-27T00:02:49.400Z,87.49
2022-12-27T00:03:49.380Z,87.53
2022-12-27T00:04:49.365Z,87.53
2022-12-27T00:05:49.375Z,87.59
2022-12-27T00:06:49.368Z,87.59
2022-12-27T00:07:49.333Z,87.70
2022-12-27T00:08:49.325Z,87.63
2022-12-27T00:09:49.346Z,87.63
2022-12-27T00:10:49.284Z,87.63
2022-12-27T00:11:51.473Z,87.74
2022-12-27T00:12:50.249Z,87.74
2022-12-27T00:13:49.270Z,87.95
2022-12-27T00:14:49.396Z,87.95
2022-12-27T00:15:49.267Z,87.95
2022-12-27T00:16:49.299Z,87.95
2022-12-27T00:17:49.265Z,88.05
2022-12-27T00:18:49.197Z,88.05
2022-12-27T00:19:49.179Z,88.15
2022-12-27T00:20:49.185Z,88.15
2022-12-27T00:21:49.210Z,88.05
2022-12-27T00:22:49.132Z,88.05
2022-12-27T00:23:49.128Z,88.05
2022-12-27T00:24:49.146Z,88.05
2022-12-27T00:25:49.119Z,88.15
2022-12-27T00:26:49.096Z,88.26
2022-12-27T00:27:49.154Z,88.36
2022-12-27T00:28:49.088Z,88.36
2022-12-27T00:29:49.076Z,88.46
2022-12-27T00:30:49.063Z,88.26
2022-12-27T00:31:49.118Z,88.36
2022-12-27T00:32:49.056Z,88.36
2022-12-27T00:33:49.048Z,88.36
2022-12-27T00:34:49.015Z,88.46
2022-12-27T00:35:49.008Z,88.46
2022-12-27T00:36:49.018Z,88.57
2022-12-27T00:37:48.987Z,88.57
2022-12-27T00:38:49.030Z,88.57
2022-12-27T00:39:48.983Z,88.57
2022-12-27T00:40:48.995Z,88.67
2022-12-27T00:41:48.944Z,88.67
2022-12-27T00:42:48.946Z,88.78
2022-12-27T00:43:48.964Z,88.78
2022-12-27T00:44:48.950Z,88.78
2022-12-27T00:45:48.976Z,88.67
2022-12-27T00:46:48.937Z,88.88
2022-12-27T00:47:48.911Z,88.88
2022-12-27T00:48:48.879Z,88.98
2022-12-27T00:49:48.865Z,88.98
2022-12-27T00:50:48.847Z,88.98
2022-12-27T00:51:48.889Z,88.98
2022-12-27T00:52:48.857Z,88.88
2022-12-27T00:53:48.828Z,88.98
2022-12-27T00:54:48.832Z,89.09
2022-12-27T00:55:48.785Z,89.09
2022-12-27T00:56:48.783Z,88.98
2022-12-27T00:57:48.814Z,89.09
2022-12-27T00:58:48.764Z,88.98
2022-12-27T00:59:48.764Z,88.98
2022-12-27T01:00:48.768Z,88.98
2022-12-27T01:01:48.858Z,89.09
2022-12-27T01:02:48.729Z,89.19
2022-12-27T01:03:48.854Z,89.09
2022-12-27T01:04:48.701Z,89.04
2022-12-27T01:05:48.705Z,89.15
2022-12-27T01:06:48.739Z,89.09
2022-12-27T01:07:48.744Z,89.19
2022-12-27T01:08:48.663Z,89.19
2022-12-27T01:09:48.669Z,89.29
2022-12-27T01:10:48.635Z,89.25
2022-12-27T01:11:48.630Z,89.19
2022-12-27T01:12:48.633Z,89.15
2022-12-27T01:13:48.640Z,89.29
2022-12-27T01:14:48.682Z,89.40
2022-12-27T01:15:48.601Z,89.40
2022-12-27T01:16:48.639Z,89.50
2022-12-27T01:17:48.560Z,89.50
2022-12-27T01:18:48.547Z,89.50
2022-12-27T01:19:48.549Z,89.50
2022-12-27T01:20:48.592Z,89.50
2022-12-27T01:21:48.563Z,89.61
2022-12-27T01:22:48.519Z,89.71
2022-12-27T01:23:48.508Z,89.71
2022-12-27T01:24:48.532Z,89.71
2022-12-27T01:25:48.495Z,89.81
2022-12-27T01:26:48.534Z,89.81
2022-12-27T01:27:48.471Z,89.92
2022-12-27T01:28:48.448Z,89.92
2022-12-27T01:29:48.451Z,89.92
2022-12-27T01:30:48.436Z,90.02
2022-12-27T01:31:48.505Z,90.02
2022-12-27T01:32:48.400Z,90.12
2022-12-27T01:33:48.388Z,90.23
2022-12-27T01:34:48.432Z,90.23
2022-12-27T01:35:48.395Z,90.23
2022-12-27T01:36:48.438Z,90.23
2022-12-27T01:37:48.350Z,90.23
2022-12-27T01:38:48.340Z,90.23
2022-12-27T01:39:48.338Z,90.23
2022-12-27T01:40:48.326Z,90.33
2022-12-27T01:41:48.384Z,90.33
2022-12-27T01:42:48.299Z,90.33
2022-12-27T01:43:48.349Z,90.33
2022-12-27T01:44:48.270Z,90.44
2022-12-27T01:45:48.366Z,90.44
2022-12-27T01:46:48.250Z,90.44
2022-12-27T01:47:48.256Z,90.44
2022-12-27T01:48:48.257Z,90.54
2022-12-27T01:49:48.226Z,90.44
2022-12-27T01:50:48.227Z,90.44
2022-12-27T01:51:48.245Z,90.44
2022-12-27T01:52:48.228Z,90.44
2022-12-27T01:53:48.187Z,90.54
2022-12-27T01:54:48.188Z,90.64
2022-12-27T01:55:48.171Z,90.75
2022-12-27T01:56:48.183Z,90.75
2022-12-27T01:57:48.144Z,90.75
2022-12-27T01:58:48.122Z,90.75
2022-12-27T01:59:48.108Z,90.75
2022-12-27T02:00:48.181Z,90.75
2022-12-27T02:01:48.200Z,90.85
2022-12-27T02:02:48.232Z,90.85
2022-12-27T02:03:48.071Z,90.85
2022-12-27T02:04:48.053Z,90.95
2022-12-27T02:05:48.045Z,90.95
2022-12-27T02:06:48.083Z,91.06
2022-12-27T02:07:48.073Z,91.06
2022-12-27T02:08:48.019Z,91.06
2022-12-27T02:09:48.053Z,91.06
2022-12-27T02:10:48.013Z,91.06
2022-12-27T02:11:48.037Z,91.06
2022-12-27T02:12:48.011Z,91.16
2022-12-27T02:13:47.975Z,91.16
2022-12-27T02:14:47.983Z,91.12
2022-12-27T02:15:47.937Z,91.12
2022-12-27T02:16:48.034Z,91.12
2022-12-27T02:17:47.916Z,91.12
2022-12-27T02:18:47.915Z,91.12
2022-12-27T02:19:47.901Z,91.02
2022-12-27T02:20:47.935Z,91.12
2022-12-27T02:21:47.903Z,91.12
2022-12-27T02:22:47.864Z,91.12
2022-12-27T02:23:47.853Z,91.12
2022-12-27T02:24:47.847Z,91.22
2022-12-27T02:25:47.892Z,91.33
2022-12-27T02:26:47.822Z,91.37
2022-12-27T02:27:47.842Z,91.43
2022-12-27T02:28:47.893Z,91.58
2022-12-27T02:29:47.841Z,91.53
2022-12-27T02:30:47.806Z,91.53
2022-12-27T02:31:47.793Z,91.64
2022-12-27T02:32:47.773Z,91.64
2022-12-27T02:33:47.755Z,91.64
2022-12-27T02:34:47.732Z,91.64
2022-12-27T02:35:47.786Z,91.64
2022-12-27T02:36:47.731Z,91.74
2022-12-27T02:37:47.702Z,91.74
2022-12-27T02:38:47.710Z,91.85
2022-12-27T02:39:47.695Z,91.85
2022-12-27T02:40:47.670Z,91.85
2022-12-27T02:41:47.713Z,91.85
2022-12-27T02:42:47.705Z,91.85
2022-12-27T02:43:47.686Z,91.95
2022-12-27T02:44:47.620Z,91.95
2022-12-27T02:45:47.669Z,91.95
2022-12-27T02:46:47.676Z,91.95
2022-12-27T02:47:47.652Z,91.95
2022-12-27T02:48:47.592Z,91.80
2022-12-27T02:49:47.580Z,91.70
2022-12-27T02:50:47.581Z,91.70
2022-12-27T02:51:47.563Z,91.80
2022-12-27T02:52:47.540Z,91.70
2022-12-27T02:53:47.576Z,91.60
2022-12-27T02:54:47.530Z,91.70
2022-12-27T02:55:47.511Z,91.70
2022-12-27T02:56:47.515Z,91.80
2022-12-27T02:57:47.514Z,91.80
2022-12-27T02:58:47.481Z,91.91
2022-12-27T02:59:47.553Z,92.01
2022-12-27T03:00:47.475Z,92.01
2022-12-27T03:01:47.545Z,91.91
2022-12-27T03:02:47.476Z,91.91
2022-12-27T03:03:47.468Z,91.91
2022-12-27T03:04:52.891Z,91.91
2022-12-27T03:05:47.399Z,91.91
2022-12-27T03:06:47.404Z,91.91
2022-12-27T03:07:47.380Z,92.01
2022-12-27T03:08:47.385Z,92.11
2022-12-27T03:09:47.357Z,92.11
2022-12-27T03:10:47.380Z,92.01
2022-12-27T03:11:47.361Z,92.11
2022-12-27T03:12:47.358Z,92.26
2022-12-27T03:13:47.327Z,92.36
2022-12-27T03:14:47.327Z,92.47
2022-12-27T03:15:47.373Z,92.47
2022-12-27T03:16:47.307Z,92.47
2022-12-27T03:17:47.274Z,92.47
2022-12-27T03:18:47.268Z,92.57
2022-12-27T03:19:47.262Z,92.57
2022-12-27T03:20:47.277Z,92.78
2022-12-27T03:21:47.305Z,92.78
2022-12-27T03:22:47.297Z,92.88
2022-12-27T03:23:47.213Z,92.88
2022-12-27T03:24:47.208Z,92.98
2022-12-27T03:25:47.204Z,92.98
2022-12-27T03:26:47.231Z,92.98
2022-12-27T03:27:47.174Z,92.98
2022-12-27T03:28:47.154Z,92.98
2022-12-27T03:29:47.147Z,93.08
2022-12-27T03:30:47.179Z,93.19
2022-12-27T03:31:47.178Z,93.19
2022-12-27T03:32:47.115Z,93.19
2022-12-27T03:33:47.125Z,93.19
2022-12-27T03:34:47.125Z,93.19
2022-12-27T03:35:47.091Z,93.29
2022-12-27T03:36:47.151Z,93.29
2022-12-27T03:37:47.098Z,93.40
2022-12-27T03:38:47.054Z,93.50
2022-12-27T03:39:47.090Z,93.50
2022-12-27T03:40:47.051Z,93.60
2022-12-27T03:41:47.020Z,93.60
2022-12-27T03:42:47.073Z,93.46
2022-12-27T03:43:47.065Z,93.35
2022-12-27T03:44:47.007Z,93.46
2022-12-27T03:45:47.005Z,93.46
2022-12-27T03:46:46.990Z,93.46
2022-12-27T03:47:46.952Z,93.46
2022-12-27T03:48:46.973Z,93.35
2022-12-27T03:49:46.942Z,93.46
2022-12-27T03:50:46.922Z,93.46
2022-12-27T03:51:46.923Z,93.35
2022-12-27T03:52:46.933Z,93.46
2022-12-27T03:53:46.947Z,93.46
2022-12-27T03:54:46.898Z,93.46
2022-12-27T03:55:46.860Z,93.46
2022-12-27T03:56:46.889Z,93.46
2022-12-27T03:57:46.850Z,93.46
2022-12-27T03:58:46.905Z,93.46
2022-12-27T03:59:46.830Z,93.46
2022-12-27T04:00:46.854Z,93.46
2022-12-27T04:01:46.931Z,93.46
2022-12-27T04:02:47.013Z,93.46
2022-12-27T04:03:46.777Z,93.56
2022-12-27T04:04:46.821Z,93.56
2022-12-27T04:05:46.759Z,93.66
2022-12-27T04:06:46.784Z,93.56
2022-12-27T04:07:46.734Z,93.56
2022-12-27T04:08:46.813Z,93.56
2022-12-27T04:09:46.726Z,93.56
2022-12-27T04:10:46.713Z,93.56
2022-12-27T04:11:46.702Z,93.66
2022-12-27T04:12:46.745Z,93.66
2022-12-27T04:13:46.734Z,93.66
2022-12-27T04:14:46.669Z,93.77
2022-12-27T04:15:46.755Z,93.66
2022-12-27T04:16:46.651Z,93.66
2022-12-27T04:17:46.631Z,93.66
2022-12-27T04:18:46.618Z,93.77
2022-12-27T04:19:46.619Z,93.77
2022-12-27T04:20:46.610Z,93.87
2022-12-27T04:21:46.629Z,93.87
2022-12-27T04:22:46.581Z,93.87
2022-12-27T04:23:46.621Z,93.87
2022-12-27T04:24:46.591Z,93.87
2022-12-27T04:25:46.542Z,93.87
2022-12-27T04:26:46.557Z,93.98
2022-12-27T04:27:46.519Z,93.87
2022-12-27T04:28:46.553Z,93.87
2022-12-27T04:29:46.513Z,93.87
2022-12-27T04:30:46.498Z,93.87
2022-12-27T04:31:46.517Z,93.98
2022-12-27T04:32:46.484Z,93.98
2022-12-27T04:33:46.467Z,94.08
2022-12-27T04:34:46.547Z,94.18
2022-12-27T04:35:46.435Z,94.18
2022-12-27T04:36:46.435Z,94.18
2022-12-27T04:37:46.448Z,94.18
2022-12-27T04:38:59.515Z,94.18
2022-12-27T04:39:46.720Z,94.18
2022-12-27T04:40:46.391Z,94.08
2022-12-27T04:41:46.362Z,94.18
2022-12-27T04:42:46.361Z,94.08
2022-12-27T04:43:46.348Z,94.08
2022-12-27T04:44:46.376Z,94.08
2022-12-27T04:45:46.319Z,94.08
2022-12-27T04:46:46.397Z,94.18
2022-12-27T04:47:46.303Z,94.18
2022-12-27T04:48:46.301Z,94.29
2022-12-27T04:49:46.322Z,94.29
2022-12-27T04:50:46.321Z,94.39
2022-12-27T04:51:46.383Z,94.39
2022-12-27T04:52:53.812Z,94.29
2022-12-27T04:53:46.243Z,94.39
2022-12-27T04:54:46.283Z,94.39
2022-12-27T04:55:46.228Z,94.49
2022-12-27T04:56:46.232Z,94.49
2022-12-27T04:57:46.237Z,94.39
2022-12-27T04:58:46.271Z,94.39
2022-12-27T04:59:46.239Z,94.39
2022-12-27T05:00:46.233Z,94.49
2022-12-27T05:01:46.351Z,94.39
2022-12-27T05:02:46.442Z,94.39
2022-12-27T05:03:46.244Z,94.39
2022-12-27T05:04:46.220Z,94.39
2022-12-27T05:05:46.164Z,94.39
2022-12-27T05:06:46.133Z,94.39
2022-12-27T05:07:46.170Z,94.39
2022-12-27T05:08:46.097Z,94.49
2022-12-27T05:09:46.077Z,94.49
2022-12-27T05:10:53.212Z,94.39
2022-12-27T05:11:46.074Z,94.39
2022-12-27T05:12:46.050Z,94.39
2022-12-27T05:13:46.061Z,94.39
2022-12-27T05:14:46.070Z,94.29
2022-12-27T05:15:46.207Z,94.18
2022-12-27T05:16:46.071Z,94.18
2022-12-27T05:17:46.077Z,94.04
2022-12-27T05:18:46.003Z,94.04
2022-12-27T05:19:45.998Z,93.93
2022-12-27T05:20:46.040Z,93.93
2022-12-27T05:21:46.021Z,93.83
2022-12-27T05:22:46.008Z,93.83
2022-12-27T05:23:45.977Z,93.83
2022-12-27T05:24:45.929Z,93.93
2022-12-27T05:25:45.922Z,93.83
2022-12-27T05:26:45.908Z,93.73
2022-12-27T05:27:45.903Z,93.73
2022-12-27T05:28:45.948Z,93.73
2022-12-27T05:29:45.918Z,93.73
2022-12-27T05:30:45.854Z,93.62
2022-12-27T05:31:45.907Z,93.62
2022-12-27T05:32:45.848Z,93.58
2022-12-27T05:33:45.808Z,93.48
2022-12-27T05:34:45.797Z,93.48
2022-12-27T05:35:45.847Z,93.37
2022-12-27T05:36:45.786Z,93.37
2022-12-27T05:37:48.819Z,93.37
2022-12-27T05:38:46.806Z,93.27
2022-12-27T05:39:45.753Z,93.27
2022-12-27T05:40:45.795Z,93.37
2022-12-27T05:41:45.735Z,93.27
2022-12-27T05:42:45.728Z,93.27
2022-12-27T05:43:45.731Z,93.37
2022-12-27T05:44:45.723Z,93.48
2022-12-27T05:45:45.746Z,93.48
2022-12-27T05:46:45.721Z,93.52
2022-12-27T05:47:45.654Z,93.48
2022-12-27T05:48:45.663Z,93.48
2022-12-27T05:49:45.668Z,93.48
2022-12-27T05:50:45.633Z,93.48
2022-12-27T05:51:45.684Z,93.48
2022-12-27T05:52:45.613Z,93.48
2022-12-27T05:53:45.619Z,93.48
2022-12-27T05:54:45.604Z,93.48
2022-12-27T05:55:45.575Z,93.48
2022-12-27T05:56:45.564Z,93.48
2022-12-27T05:57:45.640Z,93.48
2022-12-27T05:58:45.593Z,93.48
2022-12-27T05:59:45.534Z,93.48
2022-12-27T06:00:45.524Z,93.48
2022-12-27T06:01:45.732Z,93.58
2022-12-27T06:02:45.705Z,93.58
2022-12-27T06:03:45.533Z,93.58
2022-12-27T06:04:45.482Z,93.58
2022-12-27T06:05:45.475Z,93.62
2022-12-27T06:06:45.505Z,93.62
2022-12-27T06:07:45.453Z,93.73
2022-12-27T06:08:45.524Z,93.73
2022-12-27T06:09:45.443Z,93.73
2022-12-27T06:10:45.435Z,93.68
2022-12-27T06:11:45.402Z,93.68
2022-12-27T06:12:45.403Z,93.68
2022-12-27T06:13:45.401Z,93.58
2022-12-27T06:14:45.453Z,93.58
2022-12-27T06:15:45.372Z,93.58
2022-12-27T06:16:45.420Z,93.58
2022-12-27T06:17:45.347Z,93.58
2022-12-27T06:18:45.331Z,93.58
2022-12-27T06:19:45.348Z,93.58
2022-12-27T06:20:45.346Z,93.58
2022-12-27T06:21:45.408Z,93.48
2022-12-27T06:22:45.334Z,93.48
2022-12-27T06:23:45.338Z,93.48
2022-12-27T06:24:48.499Z,93.48
2022-12-27T06:25:45.289Z,93.48
2022-12-27T06:26:45.278Z,93.58
2022-12-27T06:27:45.264Z,93.58
2022-12-27T06:28:45.356Z,93.68
2022-12-27T06:29:45.296Z,93.68
2022-12-27T06:30:45.243Z,93.68
2022-12-27T06:31:45.487Z,93.68
2022-12-27T06:32:45.225Z,93.68
2022-12-27T06:33:45.245Z,93.79
2022-12-27T06:34:45.276Z,93.68
2022-12-27T06:35:45.147Z,93.68
2022-12-27T06:36:45.216Z,93.68
2022-12-27T06:37:45.129Z,93.68
2022-12-27T06:38:45.193Z,93.79
2022-12-27T06:39:45.122Z,93.79
2022-12-27T06:40:45.112Z,93.79
2022-12-27T06:41:45.122Z,93.79
2022-12-27T06:42:45.095Z,93.79
2022-12-27T06:43:45.077Z,93.79
2022-12-27T06:44:45.068Z,93.79
2022-12-27T06:45:45.169Z,93.79
2022-12-27T06:46:45.149Z,93.79
2022-12-27T06:47:45.037Z,93.79
2022-12-27T06:48:45.051Z,93.89
2022-12-27T06:49:45.260Z,93.89
2022-12-27T06:50:45.014Z,93.89
2022-12-27T06:51:45.003Z,93.79
2022-12-27T06:52:44.981Z,93.89
2022-12-27T06:53:44.971Z,93.93
2022-12-27T06:54:44.970Z,93.93
2022-12-27T06:55:45.000Z,94.04
2022-12-27T06:56:44.978Z,94.04
2022-12-27T06:57:44.922Z,94.14
2022-12-27T06:58:44.919Z,94.14
2022-12-27T06:59:49.413Z,94.14
2022-12-27T07:00:45.916Z,94.14
2022-12-27T07:01:45.010Z,94.24
2022-12-27T07:02:44.984Z,94.24
2022-12-27T07:03:44.917Z,94.35
2022-12-27T07:04:44.849Z,94.35
2022-12-27T07:05:44.857Z,94.45
2022-12-27T07:06:44.851Z,94.45
2022-12-27T07:07:44.824Z,94.45
2022-12-27T07:08:44.808Z,94.45
2022-12-27T07:09:46.337Z,94.56
2022-12-27T07:10:44.844Z,94.56
2022-12-27T07:11:44.768Z,94.56
2022-12-27T07:12:44.767Z,94.60
2022-12-27T07:13:44.790Z,94.60
2022-12-27T07:14:44.756Z,94.70
2022-12-27T07:15:44.787Z,94.81
2022-12-27T07:16:44.788Z,94.81
2022-12-27T07:17:44.737Z,94.81
2022-12-27T07:18:44.697Z,94.70
2022-12-27T07:19:44.698Z,94.81
2022-12-27T07:20:44.766Z,94.76
2022-12-27T07:21:44.677Z,94.70
2022-12-27T07:22:44.661Z,94.87
2022-12-27T07:23:44.685Z,94.76
2022-12-27T07:24:44.747Z,94.76
2022-12-27T07:25:44.666Z,94.66
2022-12-27T07:26:44.604Z,94.66
2022-12-27T07:27:44.605Z,94.56
2022-12-27T07:28:44.631Z,94.45
2022-12-27T07:29:45.827Z,94.56
2022-12-27T07:30:44.560Z,94.66
2022-12-27T07:31:44.605Z,94.66
2022-12-27T07:32:44.548Z,94.66
2022-12-27T07:33:44.565Z,94.76
2022-12-27T07:34:44.913Z,94.76
2022-12-27T07:35:45.377Z,94.76
2022-12-27T07:36:44.506Z,94.81
2022-12-27T07:37:44.495Z,94.81
2022-12-27T07:38:44.473Z,94.91
2022-12-27T07:39:44.528Z,95.01
2022-12-27T07:40:44.467Z,95.01
2022-12-27T07:41:44.445Z,95.12
2022-12-27T07:42:44.454Z,95.12
2022-12-27T07:43:44.448Z,95.22
2022-12-27T07:44:44.404Z,95.22
2022-12-27T07:45:44.589Z,95.22
2022-12-27T07:46:44.391Z,95.22
2022-12-27T07:47:44.380Z,95.22
2022-12-27T07:48:44.362Z,95.22
2022-12-27T07:49:44.411Z,95.22
2022-12-27T07:50:44.342Z,95.22
2022-12-27T07:51:44.351Z,95.22
2022-12-27T07:52:44.332Z,95.22
2022-12-27T07:53:44.329Z,95.22
2022-12-27T07:54:44.315Z,95.22
2022-12-27T07:55:44.377Z,95.22
2022-12-27T07:56:45.873Z,95.22
2022-12-27T07:57:44.281Z,95.22
2022-12-27T07:58:44.260Z,95.22
2022-12-27T07:59:44.251Z,95.22
2022-12-27T08:00:44.260Z,95.32
2022-12-27T08:01:44.417Z,95.32
2022-12-27T08:02:44.221Z,95.32
2022-12-27T08:03:44.293Z,95.32
2022-12-27T08:04:44.210Z,95.32
2022-12-27T08:05:44.340Z,95.28
2022-12-27T08:06:44.184Z,95.28
2022-12-27T08:07:44.169Z,95.18
2022-12-27T08:08:44.162Z,95.18
2022-12-27T08:09:44.175Z,95.18
2022-12-27T08:10:44.135Z,95.07
2022-12-27T08:11:44.189Z,95.07
2022-12-27T08:12:44.117Z,95.07
2022-12-27T08:13:44.107Z,95.07
2022-12-27T08:14:44.082Z,94.97
2022-12-27T08:15:44.118Z,94.97
2022-12-27T08:16:44.106Z,94.97
2022-12-27T08:17:44.088Z,94.97
2022-12-27T08:18:44.039Z,95.07
2022-12-27T08:19:44.043Z,95.07
2022-12-27T08:20:45.149Z,95.07
2022-12-27T08:21:44.041Z,95.07
2022-12-27T08:22:44.049Z,95.07
2022-12-27T08:23:44.001Z,95.07
2022-12-27T08:24:43.992Z,95.07
2022-12-27T08:25:48.795Z,95.07
2022-12-27T08:26:44.964Z,95.07
2022-12-27T08:27:43.986Z,95.07
2022-12-27T08:28:43.978Z,95.07
2022-12-27T08:29:43.937Z,95.07
2022-12-27T08:30:44.002Z,95.07
2022-12-27T08:31:45.986Z,95.07
2022-12-27T08:32:43.930Z,94.97
2022-12-27T08:33:44.205Z,94.97
2022-12-27T08:34:43.894Z,94.97
2022-12-27T08:35:53.161Z,94.97
2022-12-27T08:36:55.034Z,94.87
2022-12-27T08:37:44.885Z,94.87
2022-12-27T08:38:43.837Z,94.87
2022-12-27T08:39:43.847Z,94.87
2022-12-27T08:40:43.815Z,94.87
2022-12-27T08:41:45.516Z,94.97
2022-12-27T08:42:43.805Z,94.87
2022-12-27T08:43:43.863Z,94.82
2022-12-27T08:44:43.783Z,94.82
2022-12-27T08:45:43.826Z,94.82
2022-12-27T08:46:43.834Z,94.72
2022-12-27T08:47:43.744Z,94.72
2022-12-27T08:48:43.790Z,94.72
2022-12-27T08:49:43.768Z,94.72
2022-12-27T08:50:43.695Z,94.72
2022-12-27T08:51:43.744Z,94.72
2022-12-27T08:52:43.738Z,94.72
2022-12-27T08:53:43.704Z,94.72
2022-12-27T08:54:43.711Z,94.62
2022-12-27T08:55:43.664Z,94.51
2022-12-27T08:56:43.633Z,94.51
2022-12-27T08:57:43.629Z,94.41
2022-12-27T08:58:43.694Z,94.41
2022-12-27T08:59:43.610Z,94.51
2022-12-27T09:00:43.600Z,94.51
2022-12-27T09:01:43.699Z,94.41
2022-12-27T09:02:43.687Z,94.41
2022-12-27T09:03:43.884Z,94.41
2022-12-27T09:04:43.678Z,94.41
2022-12-27T09:05:43.778Z,94.41
2022-12-27T09:06:43.623Z,94.41
2022-12-27T09:07:43.520Z,94.41
2022-12-27T09:08:43.571Z,94.41
2022-12-27T09:09:43.522Z,94.41
2022-12-27T09:10:43.512Z,94.31
2022-12-27T09:11:43.494Z,94.31
2022-12-27T09:12:43.695Z,94.41
2022-12-27T09:13:43.473Z,94.41
2022-12-27T09:14:43.433Z,94.41
2022-12-27T09:15:43.767Z,94.41
2022-12-27T09:16:43.423Z,94.41
2022-12-27T09:17:43.412Z,94.41
2022-12-27T09:18:43.401Z,94.41
2022-12-27T09:19:43.393Z,94.26
2022-12-27T09:20:43.391Z,94.26
2022-12-27T09:21:43.403Z,94.16
2022-12-27T09:22:43.362Z,94.06
2022-12-27T09:23:43.351Z,94.06
2022-12-27T09:24:43.379Z,94.06
2022-12-27T09:25:43.404Z,94.06
2022-12-27T09:26:43.318Z,94.06
2022-12-27T09:27:43.308Z,94.06
2022-12-27T09:28:43.313Z,94.06
2022-12-27T09:29:48.292Z,94.06
2022-12-27T09:30:44.381Z,93.95
2022-12-27T09:31:43.271Z,94.47
2022-12-27T09:32:43.273Z,94.94
2022-12-27T09:33:43.241Z,94.53
2022-12-27T09:34:43.229Z,94.01
2022-12-27T09:35:43.217Z,93.80
2022-12-27T09:36:43.203Z,93.60
2022-12-27T09:37:43.231Z,93.60
2022-12-27T09:38:43.264Z,93.39
2022-12-27T09:39:43.207Z,93.39
2022-12-27T09:40:43.180Z,93.43
2022-12-27T09:42:56.152Z,93.49
2022-12-27T09:43:44.183Z,93.49
2022-12-27T09:44:43.111Z,93.49
2022-12-27T09:45:43.108Z,93.49
2022-12-27T09:46:43.133Z,93.49
2022-12-27T09:47:43.090Z,93.39
2022-12-27T09:48:43.072Z,93.49
2022-12-27T09:49:43.103Z,93.60
2022-12-27T09:50:43.049Z,93.49
2022-12-27T09:51:43.038Z,93.49
2022-12-27T09:52:43.037Z,93.39
2022-12-27T09:53:43.025Z,93.39
2022-12-27T09:54:43.013Z,93.39
2022-12-27T09:55:45.479Z,93.29
2022-12-27T09:57:17.732Z,93.29
2022-12-27T09:57:43.985Z,93.29
2022-12-27T09:58:42.978Z,93.18
2022-12-27T09:59:42.996Z,93.18
2022-12-27T10:00:46.381Z,93.14
2022-12-27T10:01:45.044Z,93.04
2022-12-27T10:02:43.010Z,92.93
2022-12-27T10:03:42.917Z,92.93
2022-12-27T10:05:18.390Z,92.93
2022-12-27T10:05:43.928Z,92.93
2022-12-27T10:06:42.878Z,92.93
2022-12-27T10:07:42.874Z,92.93
2022-12-27T10:08:42.920Z,92.83
2022-12-27T10:09:42.857Z,92.72
2022-12-27T10:10:42.880Z,92.52
2022-12-27T10:11:42.835Z,92.52
2022-12-27T10:12:42.805Z,92.52
2022-12-27T10:13:42.841Z,92.42
2022-12-27T10:14:42.797Z,92.27
2022-12-27T10:15:42.874Z,92.27
2022-12-27T10:16:42.764Z,92.17
2022-12-27T10:17:44.754Z,92.17
2022-12-27T10:18:42.815Z,92.27
2022-12-27T10:19:42.789Z,92.27
2022-12-27T10:20:42.763Z,92.27
2022-12-27T10:21:42.713Z,92.07
2022-12-27T10:22:42.718Z,92.17
2022-12-27T10:23:42.710Z,92.17
2022-12-27T10:24:43.523Z,92.07
2022-12-27T10:25:42.674Z,91.86
2022-12-27T10:26:42.666Z,91.86
2022-12-27T10:27:42.662Z,91.86
2022-12-27T10:28:42.673Z,91.75
2022-12-27T10:29:42.650Z,91.71
2022-12-27T10:30:42.632Z,91.61
2022-12-27T10:31:42.699Z,91.61
2022-12-27T10:32:42.602Z,91.61
2022-12-27T10:33:42.593Z,91.61
2022-12-27T10:34:42.622Z,91.50
2022-12-27T10:35:42.674Z,91.50
2022-12-27T10:36:42.561Z,91.40
2022-12-27T10:37:42.563Z,91.30
2022-12-27T10:39:32.891Z,91.30
2022-12-27T10:40:34.642Z,91.40
2022-12-27T10:41:32.673Z,91.30
2022-12-27T10:42:32.603Z,91.30
2022-12-27T10:43:32.600Z,91.20
2022-12-27T10:44:32.585Z,91.09
2022-12-27T10:45:32.602Z,90.99
2022-12-27T10:46:33.600Z,90.99
2022-12-27T10:47:32.584Z,90.99
2022-12-27T10:49:10.926Z,90.89
2022-12-27T10:49:33.584Z,90.84
2022-12-27T10:50:32.514Z,90.74
2022-12-27T10:51:32.528Z,90.64
2022-12-27T10:52:32.568Z,90.64
2022-12-27T10:53:32.490Z,90.64
2022-12-27T10:54:32.480Z,90.53
2022-12-27T10:55:32.492Z,90.53
2022-12-27T10:56:32.462Z,90.64
2022-12-27T10:57:32.512Z,90.53
2022-12-27T10:58:32.442Z,90.43
2022-12-27T10:59:32.428Z,90.33
2022-12-27T11:00:32.472Z,90.22
2022-12-27T11:01:32.605Z,90.12
2022-12-27T11:02:32.610Z,90.22
2022-12-27T11:03:32.379Z,90.02
2022-12-27T11:04:32.396Z,90.02
2022-12-27T11:05:32.381Z,89.81
2022-12-27T11:06:32.354Z,89.77
2022-12-27T11:07:32.390Z,89.87
2022-12-27T11:08:32.328Z,89.98
2022-12-27T11:09:32.925Z,89.87
2022-12-27T11:10:32.328Z,89.67
2022-12-27T11:11:32.312Z,89.56
2022-12-27T11:12:32.314Z,89.67
2022-12-27T11:13:32.278Z,89.67
2022-12-27T11:14:32.250Z,89.56
2022-12-27T11:15:32.312Z,89.56
2022-12-27T11:16:32.305Z,89.46
2022-12-27T11:17:32.252Z,89.25
2022-12-27T11:18:32.224Z,89.36
2022-12-27T11:19:32.210Z,89.36
2022-12-27T11:20:32.190Z,89.36
2022-12-27T11:21:32.238Z,89.25
2022-12-27T11:22:32.169Z,89.25
2022-12-27T11:23:32.247Z,89.15
2022-12-27T11:24:32.178Z,89.25
2022-12-27T11:25:32.151Z,89.36
2022-12-27T11:26:32.137Z,89.36
2022-12-27T11:27:32.135Z,89.46
2022-12-27T11:28:32.122Z,89.36
2022-12-27T11:29:32.165Z,89.36
2022-12-27T11:30:37.049Z,89.36
2022-12-27T11:31:32.207Z,89.25
2022-12-27T11:32:32.068Z,89.15
2022-12-27T11:33:32.122Z,89.15
2022-12-27T11:34:32.092Z,89.25
2022-12-27T11:35:32.043Z,89.25
2022-12-27T11:36:32.047Z,89.05
2022-12-27T11:37:32.039Z,88.90
2022-12-27T11:38:32.045Z,88.80
2022-12-27T11:39:32.055Z,88.59
2022-12-27T11:40:32.034Z,88.49
2022-12-27T11:41:31.981Z,88.49
2022-12-27T11:42:31.964Z,88.39
2022-12-27T11:43:31.966Z,88.39
2022-12-27T11:44:31.939Z,88.39
2022-12-27T11:45:31.980Z,88.49
2022-12-27T11:46:32.022Z,88.39
2022-12-27T11:47:31.985Z,88.39
2022-12-27T11:48:31.955Z,88.39
2022-12-27T11:49:31.884Z,88.49
2022-12-27T11:50:31.875Z,88.59
2022-12-27T11:51:31.855Z,88.59
2022-12-27T11:52:31.900Z,88.49
2022-12-27T11:53:31.843Z,88.49
2022-12-27T11:54:31.868Z,88.49
2022-12-27T11:55:31.856Z,88.39
2022-12-27T11:56:31.816Z,88.29
2022-12-27T11:57:31.808Z,88.29
2022-12-27T11:58:31.797Z,88.29
2022-12-27T11:59:31.802Z,88.29
2022-12-27T12:00:33.499Z,88.29
2022-12-27T12:01:31.780Z,88.18
2022-12-27T12:02:31.854Z,88.18
2022-12-27T12:03:31.798Z,88.08
2022-12-27T12:04:31.735Z,88.08
2022-12-27T12:05:31.797Z,88.04
2022-12-27T12:06:34.565Z,87.83
2022-12-27T12:07:31.691Z,87.73
2022-12-27T12:08:31.701Z,87.73
2022-12-27T12:09:31.704Z,87.52
2022-12-27T12:10:31.664Z,87.42
2022-12-27T12:11:31.713Z,87.32
2022-12-27T12:12:31.665Z,87.07
2022-12-27T12:13:31.675Z,87.07
2022-12-27T12:14:31.665Z,86.97
2022-12-27T12:15:31.615Z,86.97
2022-12-27T12:16:31.684Z,86.87
2022-12-27T12:17:35.911Z,86.45
2022-12-27T12:18:31.649Z,86.24
2022-12-27T12:19:31.574Z,86.24
2022-12-27T12:20:31.686Z,86.15
2022-12-27T12:21:31.548Z,86.15
2022-12-27T12:22:31.583Z,86.10
2022-12-27T12:23:31.520Z,86.00
2022-12-27T12:24:31.513Z,86.00
2022-12-27T12:25:31.505Z,86.00
2022-12-27T12:26:31.595Z,86.00
2022-12-27T12:27:31.518Z,85.89
2022-12-27T12:28:56.792Z,85.79
2022-12-27T12:29:32.460Z,85.79
2022-12-27T12:30:31.472Z,85.79
2022-12-27T12:31:31.524Z,85.79
2022-12-27T12:32:31.471Z,85.79
2022-12-27T12:33:31.429Z,85.89
2022-12-27T12:34:31.409Z,85.89
2022-12-27T12:35:31.391Z,86.00
2022-12-27T12:36:31.410Z,85.79
2022-12-27T12:37:31.372Z,85.69
2022-12-27T12:38:31.706Z,85.69
2022-12-27T12:39:31.385Z,85.69
2022-12-27T12:40:31.344Z,85.79
2022-12-27T12:41:31.326Z,85.59
2022-12-27T12:42:31.353Z,85.59
2022-12-27T12:43:31.308Z,85.17
2022-12-27T12:44:35.115Z,85.07
2022-12-27T12:45:32.384Z,85.28
2022-12-27T12:46:31.277Z,85.38
2022-12-27T12:47:31.269Z,85.07
2022-12-27T12:48:32.992Z,84.77
2022-12-27T12:49:31.238Z,84.77
2022-12-27T12:50:31.231Z,84.77
2022-12-27T12:51:31.221Z,84.77
2022-12-27T12:52:31.215Z,84.87
2022-12-27T12:53:31.298Z,84.97
2022-12-27T12:54:31.225Z,85.17